INFORMAÇÕES METEOROLÓGICAS
METAR FOR LPFL
ADDS - METARS form results

(1346 UTC 08 May 2021)
Data provider http://aviationweather.gov/metar/data/
 
METAR text: LPFL 081330Z 34010KT 280V010 9999 SCT014 BKN030 17/12 Q1017
Conditions at: LPFL (FLORES ISLAND , PT) observed 1330 UTC 08 May 2021
Temperature: 17.0°C (63°F)
Dewpoint: 12.0°C (54°F) [RH = 72%]
Pressure (altimeter): 30.03 inches Hg (1017.0 mb)
Winds: from the NNW (340 degrees) at 12 MPH (10 knots; 5.1 m/s)
Visibility: 6 or more miles (10+ km)
Ceiling: 3000 feet AGL
Clouds: scattered clouds at 1400 feet AGL
broken clouds at 3000 feet AGL
Weather: no significant weather observed at this time

METAR text: LPFL 081300Z 34011KT 300V010 9999 SCT013 BKN030 16/12 Q1017
Conditions at: LPFL (FLORES ISLAND , PT) observed 1300 UTC 08 May 2021
Temperature: 16.0°C (61°F)
Dewpoint: 12.0°C (54°F) [RH = 77%]
Pressure (altimeter): 30.03 inches Hg (1017.0 mb)
Winds: from the NNW (340 degrees) at 13 MPH (11 knots; 5.7 m/s)
Visibility: 6 or more miles (10+ km)
Ceiling: 3000 feet AGL
Clouds: scattered clouds at 1300 feet AGL
broken clouds at 3000 feet AGL
Weather: no significant weather observed at this time

 MAPA DO AEROPORTO

 INFORMAÇÕES DA PISTA
Pista 18 Tamanho da pista 4593 ft Largura da pista 98 ft
Elevação da pista 98 ft Ranhura da pista 262 ft Proa da pista 166
Pista 36 Tamanho da pista 4593 ft Largura da pista 98 ft
Elevação da pista 107 ft Ranhura da pista 197 ft Proa da pista 346

 FREQUÊNCIAS DO AEROPORTO
Tipo TWR Nome TWR Frequência 118.3 MHZ

 AUXÍLIOS DE NAVEGAÇÃO PRÓXIMOS AO AEROPORTO
Tipo NDB Nome Flores Frequência 270 KHZ
Tipo VOR-DME Nome Flores Frequência 113300 KHZ



Redes oficiais, softwares e parceiros.

                             

2021 Dream Sky Virtual Airlines


Social-bar